Time;durP1;ratioP1;P1;durP2;ratioP2;P2;SDS_P1;SDS_P2;PMS_P1;PMS_P2;Temp;Humidity;BMP_temperature;BMP_pressure;BME280_temperature;BME280_humidity;BME280_pressure;Samples;Min_cycle;Max_cycle;Signal;HPM_P1;HPM_P2
2023/07/07 00:00:38;;;;;;;3.90;3.17;;;11.10;98.00;;;;;;8366492;28;20272;-68
2023/07/07 00:04:39;;;;;;;3.60;3.23;;;11.10;99.90;;;;;;8368374;28;20295;-68
2023/07/07 00:08:40;;;;;;;3.63;3.33;;;11.00;99.90;;;;;;8361127;28;20189;-68
2023/07/07 00:12:41;;;;;;;4.53;3.17;;;11.00;99.90;;;;;;8351655;28;20189;-68
2023/07/07 00:16:42;;;;;;;3.70;3.23;;;11.00;99.90;;;;;;8355032;28;20189;-67
2023/07/07 00:20:43;;;;;;;4.10;3.40;;;11.00;99.90;;;;;;8364383;28;20217;-68
2023/07/07 00:24:44;;;;;;;4.40;3.20;;;11.00;99.90;;;;;;8370573;28;20178;-66
2023/07/07 00:28:45;;;;;;;4.20;3.70;;;11.00;99.90;;;;;;8364902;28;20194;-67
2023/07/07 00:32:46;;;;;;;4.07;3.23;;;11.00;99.90;;;;;;8349369;28;20198;-68
2023/07/07 00:36:47;;;;;;;4.13;3.60;;;11.10;99.90;;;;;;8351991;28;20182;-69
2023/07/07 00:40:52;;;;;;;3.83;3.53;;;11.10;99.90;;;;;;8366628;28;20232;-68
2023/07/07 00:45:20;;;;;;;4.03;3.63;;;11.10;99.90;;;;;;8355107;28;20249;-68
2023/07/07 00:49:22;;;;;;;4.70;3.77;;;11.00;99.90;;;;;;8353508;28;20319;-68
2023/07/07 00:53:24;;;;;;;3.60;3.30;;;11.00;99.90;;;;;;8348297;28;20182;-67
2023/07/07 00:57:25;;;;;;;4.40;3.77;;;11.00;99.90;;;;;;8363448;28;20186;-67
2023/07/07 01:01:26;;;;;;;4.07;3.67;;;11.00;99.90;;;;;;8365851;28;20209;-67
2023/07/07 01:05:30;;;;;;;4.03;3.50;;;11.00;99.90;;;;;;8350349;28;20205;-69
2023/07/07 01:09:31;;;;;;;3.80;3.30;;;11.00;99.90;;;;;;8351243;28;20205;-68
2023/07/07 01:13:33;;;;;;;4.87;3.23;;;11.00;99.90;;;;;;8366990;28;20272;-67
2023/07/07 01:18:00;;;;;;;3.70;3.40;;;10.90;99.90;;;;;;8367366;28;20186;-67
2023/07/07 01:22:16;;;;;;;3.87;3.47;;;10.90;99.90;;;;;;8350517;28;20234;-66
2023/07/07 01:26:26;;;;;;;4.17;3.33;;;10.90;99.90;;;;;;8355838;28;20209;-67
2023/07/07 01:31:06;;;;;;;3.67;3.00;;;10.90;99.90;;;;;;8364615;28;20185;-68
2023/07/07 01:35:16;;;;;;;5.20;3.90;;;10.90;99.90;;;;;;8336785;28;20194;-66
2023/07/07 01:39:17;;;;;;;4.37;3.47;;;10.90;99.90;;;;;;8348013;28;20217;-68
2023/07/07 01:43:33;;;;;;;4.10;3.70;;;10.90;99.90;;;;;;8364201;28;20185;-68
2023/07/07 01:47:39;;;;;;;3.87;3.53;;;10.90;99.90;;;;;;8362718;28;20250;-68
2023/07/07 01:51:53;;;;;;;5.27;4.17;;;10.80;99.90;;;;;;8363897;28;20189;-66
2023/07/07 01:55:59;;;;;;;4.93;3.90;;;10.70;1.00;;;;;;8347283;28;20193;-68
2023/07/07 02:00:03;;;;;;;5.37;4.30;;;10.60;1.00;;;;;;8346011;28;20316;-68
2023/07/07 02:04:04;;;;;;;4.87;4.40;;;10.60;1.00;;;;;;8347579;28;20248;-68
2023/07/07 02:08:06;;;;;;;4.40;4.00;;;10.50;1.00;;;;;;8362014;28;20293;-68
2023/07/07 02:12:08;;;;;;;4.43;4.03;;;10.50;1.00;;;;;;8349021;28;20185;-68
2023/07/07 02:16:09;;;;;;;4.07;3.67;;;10.50;1.00;;;;;;8347375;28;20200;-67
2023/07/07 02:20:14;;;;;;;4.73;3.83;;;10.40;1.00;;;;;;8364459;28;20220;-68
2023/07/07 02:24:15;;;;;;;5.10;4.00;;;10.30;57.20;;;;;;8341134;28;20243;-68
2023/07/07 02:28:16;;;;;;;4.70;3.67;;;10.30;99.90;;;;;;8354725;28;20213;-66
2023/07/07 02:32:17;;;;;;;4.60;3.63;;;10.30;99.90;;;;;;8343174;28;20255;-67
2023/07/07 02:36:18;;;;;;;4.83;4.00;;;10.30;99.90;;;;;;8362271;28;20287;-67
2023/07/07 02:40:19;;;;;;;4.40;3.93;;;10.30;99.90;;;;;;8360947;28;20201;-67
2023/07/07 02:44:20;;;;;;;4.10;3.70;;;10.30;99.90;;;;;;8357333;28;20216;-68
2023/07/07 02:48:22;;;;;;;5.27;3.73;;;10.40;99.90;;;;;;8352653;28;20193;-67
2023/07/07 02:52:23;;;;;;;5.53;3.80;;;10.40;99.90;;;;;;8356477;28;20185;-66
2023/07/07 02:56:24;;;;;;;4.47;3.93;;;10.40;99.90;;;;;;8353180;28;20191;-67
2023/07/07 03:00:25;;;;;;;5.30;4.17;;;10.40;99.90;;;;;;8353813;28;20212;-67
2023/07/07 03:04:26;;;;;;;4.87;4.27;;;10.40;99.90;;;;;;8350970;28;20201;-68
2023/07/07 03:08:27;;;;;;;4.67;4.20;;;10.40;99.90;;;;;;8350876;28;20206;-72
2023/07/07 03:12:28;;;;;;;4.47;4.07;;;10.50;99.90;;;;;;8353606;28;20441;-73
2023/07/07 03:16:30;;;;;;;4.10;3.70;;;10.60;99.90;;;;;;8375582;28;20169;-71
2023/07/07 03:20:31;;;;;;;4.83;3.97;;;10.80;12.10;;;;;;8356100;28;20223;-72
2023/07/07 03:24:32;;;;;;;4.77;4.20;;;11.20;1.00;;;;;;8375960;28;20175;-73
2023/07/07 03:28:33;;;;;;;6.70;4.37;;;11.90;99.90;;;;;;8354524;28;20209;-72
2023/07/07 03:32:34;;;;;;;5.27;4.53;;;12.80;12.40;;;;;;8370412;28;20290;-72
2023/07/07 03:36:38;;;;;;;4.10;3.70;;;13.70;99.90;;;;;;8360073;28;20191;-72
2023/07/07 03:40:47;;;;;;;4.37;3.37;;;14.70;99.90;;;;;;8377729;28;20204;-72
2023/07/07 03:44:48;;;;;;;5.20;3.10;;;15.60;99.90;;;;;;8365349;28;20205;-73
2023/07/07 03:48:50;;;;;;;3.23;2.93;;;16.40;25.70;;;;;;8349888;28;20263;-73
2023/07/07 03:52:51;;;;;;;4.73;3.03;;;16.70;1.00;;;;;;8359968;28;20192;-73
2023/07/07 03:56:52;;;;;;;4.47;3.67;;;16.70;1.00;;;;;;8370382;28;20180;-73
2023/07/07 04:00:53;;;;;;;5.20;3.27;;;16.30;1.00;;;;;;8368393;28;20256;-72
2023/07/07 04:04:54;;;;;;;5.37;3.77;;;16.60;1.00;;;;;;8364351;28;20228;-71
2023/07/07 04:08:55;;;;;;;5.63;4.00;;;17.50;1.00;;;;;;8366960;28;20189;-71
2023/07/07 04:12:56;;;;;;;4.13;3.33;;;18.10;1.00;;;;;;8362572;28;20324;-71
2023/07/07 04:16:57;;;;;;;6.23;3.73;;;18.70;1.00;;;;;;8351942;28;20188;-72
2023/07/07 04:21:00;;;;;;;5.07;4.07;;;19.20;1.00;;;;;;8348852;28;20202;-71
2023/07/07 04:25:13;;;;;;;3.80;3.20;;;19.40;1.00;;;;;;8369316;28;20186;-71
2023/07/07 04:29:14;;;;;;;2.93;2.67;;;20.00;1.00;;;;;;8346030;28;20278;-72
2023/07/07 04:33:14;;;;;;;4.50;3.10;;;20.70;1.00;;;;;;8350308;28;20209;-70
2023/07/07 04:37:16;;;;;;;3.77;2.97;;;21.40;1.00;;;;;;8353218;28;20185;-71
2023/07/07 04:41:23;;;;;;;3.97;2.90;;;21.90;1.00;;;;;;8365572;28;20201;-71
2023/07/07 04:45:24;;;;;;;3.90;2.93;;;22.30;1.00;;;;;;8363990;28;20176;-70
2023/07/07 04:49:25;;;;;;;4.10;2.77;;;22.60;1.00;;;;;;8355252;28;20213;-71
2023/07/07 04:53:28;;;;;;;2.83;2.53;;;22.90;1.00;;;;;;8364448;28;20181;-70
2023/07/07 04:57:29;;;;;;;3.70;2.67;;;23.10;1.00;;;;;;8350701;28;20256;-70
2023/07/07 05:01:30;;;;;;;4.67;3.60;;;23.30;1.00;;;;;;8367383;28;20205;-71
2023/07/07 05:05:36;;;;;;;5.40;2.87;;;23.40;1.00;;;;;;8349083;28;20205;-71
2023/07/07 05:09:37;;;;;;;10.73;6.40;;;23.00;1.00;;;;;;8352486;28;20182;-69
2023/07/07 05:13:40;;;;;;;13.30;7.90;;;22.50;1.00;;;;;;8367511;28;20189;-70
2023/07/07 05:17:41;;;;;;;5.00;4.07;;;21.60;1.00;;;;;;8355945;28;20190;-69
2023/07/07 05:21:42;;;;;;;7.33;4.33;;;20.90;1.00;;;;;;8363571;28;20225;-69
2023/07/07 05:25:45;;;;;;;7.83;5.27;;;20.30;1.00;;;;;;8352249;28;20189;-69
2023/07/07 05:29:45;;;;;;;6.53;3.57;;;19.80;1.00;;;;;;8349709;28;20196;-69
2023/07/07 05:33:47;;;;;;;4.83;3.50;;;19.50;1.00;;;;;;8362371;28;20203;-70
2023/07/07 05:37:48;;;;;;;4.47;3.13;;;19.50;1.00;;;;;;8352394;28;20185;-70
2023/07/07 05:41:49;;;;;;;6.97;4.57;;;19.60;1.00;;;;;;8351730;28;20219;-68
2023/07/07 05:46:05;;;;;;;6.30;4.20;;;19.70;1.00;;;;;;8360574;28;20177;-69
2023/07/07 05:50:10;;;;;;;6.80;4.17;;;19.80;1.00;;;;;;8350596;28;20224;-70
2023/07/07 05:54:11;;;;;;;5.63;4.90;;;19.60;1.00;;;;;;8364635;28;20184;-70
2023/07/07 05:58:16;;;;;;;5.33;3.93;;;19.60;1.00;;;;;;8346262;28;20197;-69
2023/07/07 06:02:17;;;;;;;4.90;3.80;;;19.50;1.00;;;;;;8348900;28;20217;-69
2023/07/07 06:06:21;;;;;;;4.07;3.60;;;19.50;1.00;;;;;;8346813;28;20193;-70
2023/07/07 06:10:22;;;;;;;6.13;3.00;;;19.50;1.00;;;;;;8348729;28;20200;-69
2023/07/07 06:14:26;;;;;;;5.50;3.27;;;19.70;1.00;;;;;;8342703;28;20196;-69
2023/07/07 06:18:30;;;;;;;7.33;3.07;;;19.80;1.00;;;;;;8363904;28;20185;-69
2023/07/07 06:22:31;;;;;;;4.23;3.00;;;20.00;1.00;;;;;;8360369;28;20266;-70
2023/07/07 06:26:32;;;;;;;4.37;3.17;;;20.30;1.00;;;;;;8352417;28;20189;-69
2023/07/07 06:30:33;;;;;;;5.17;3.50;;;20.60;1.00;;;;;;8364847;28;20205;-69
2023/07/07 06:34:34;;;;;;;3.87;3.00;;;20.80;1.00;;;;;;8352242;28;20180;-69
2023/07/07 06:38:44;;;;;;;4.70;2.83;;;21.10;1.00;;;;;;8348157;28;20192;-68
2023/07/07 06:42:45;;;;;;;6.67;3.03;;;21.30;1.00;;;;;;8360093;28;20260;-68
2023/07/07 06:46:46;;;;;;;5.40;3.30;;;21.20;1.00;;;;;;8365089;28;20190;-66
2023/07/07 06:50:46;;;;;;;3.50;2.70;;;21.40;1.00;;;;;;8343699;28;20277;-66
2023/07/07 06:54:48;;;;;;;3.37;2.30;;;21.50;1.00;;;;;;8343887;28;20275;-69
2023/07/07 06:58:49;;;;;;;4.07;2.60;;;21.60;1.00;;;;;;8342651;28;20217;-66
2023/07/07 07:02:50;;;;;;;3.90;2.53;;;21.70;1.00;;;;;;8342736;28;20204;-67
2023/07/07 07:06:51;;;;;;;3.70;2.27;;;21.80;1.00;;;;;;8360716;28;20185;-67
2023/07/07 07:10:52;;;;;;;3.27;1.80;;;21.90;1.00;;;;;;8360068;28;20240;-68
2023/07/07 07:14:53;;;;;;;3.80;2.40;;;22.00;1.00;;;;;;8362061;28;20193;-68
2023/07/07 07:18:57;;;;;;;3.13;2.00;;;22.10;1.00;;;;;;8350919;28;20213;-66
2023/07/07 07:22:58;;;;;;;3.87;1.90;;;22.20;1.00;;;;;;8345536;28;20186;-68
2023/07/07 07:26:59;;;;;;;2.77;1.73;;;22.30;1.00;;;;;;8351764;28;20205;-66
2023/07/07 07:31:00;;;;;;;2.83;1.80;;;22.30;1.00;;;;;;8365074;28;20191;-68
2023/07/07 07:35:01;;;;;;;2.53;1.87;;;22.40;1.00;;;;;;8351788;28;20204;-70
2023/07/07 07:39:02;;;;;;;3.77;1.90;;;22.60;1.00;;;;;;8359028;28;20209;-68
2023/07/07 07:43:03;;;;;;;3.60;1.87;;;22.80;1.00;;;;;;8357162;28;20189;-71
2023/07/07 07:47:04;;;;;;;3.27;1.93;;;23.10;1.00;;;;;;8350395;28;20189;-68
2023/07/07 07:51:05;;;;;;;2.10;1.77;;;23.30;1.00;;;;;;8354962;28;20186;-67
2023/07/07 07:55:07;;;;;;;4.67;2.17;;;23.30;1.00;;;;;;8348708;28;20200;-66
2023/07/07 07:59:08;;;;;;;3.80;2.10;;;23.30;1.00;;;;;;8357322;28;20219;-64
2023/07/07 08:03:09;;;;;;;2.73;2.00;;;23.30;1.00;;;;;;8369438;28;20247;-69
2023/07/07 08:07:10;;;;;;;2.43;1.97;;;23.30;1.00;;;;;;8352996;28;20186;-66
2023/07/07 08:11:17;;;;;;;2.27;1.73;;;23.40;1.00;;;;;;8366075;28;20174;-67
2023/07/07 08:15:18;;;;;;;3.33;1.97;;;23.40;1.00;;;;;;8365159;28;20213;-66
2023/07/07 08:19:20;;;;;;;2.33;1.40;;;23.50;1.00;;;;;;8366568;28;20284;-66
2023/07/07 08:23:21;;;;;;;2.90;2.27;;;23.60;1.00;;;;;;8347271;28;20181;-67
2023/07/07 08:27:25;;;;;;;2.50;1.93;;;23.60;1.00;;;;;;8369041;28;20182;-70
2023/07/07 08:31:26;;;;;;;2.97;2.13;;;23.70;1.00;;;;;;8355669;28;20205;-69
2023/07/07 08:35:27;;;;;;;2.33;1.83;;;23.80;1.00;;;;;;8349169;28;20185;-67
2023/07/07 08:39:29;;;;;;;2.73;2.10;;;24.00;1.00;;;;;;8368199;28;20237;-63
2023/07/07 08:43:30;;;;;;;4.10;1.80;;;24.00;1.00;;;;;;8350459;28;20182;-70
2023/07/07 08:47:35;;;;;;;3.90;1.80;;;24.10;1.00;;;;;;8367393;28;20178;-67
2023/07/07 08:51:43;;;;;;;3.63;1.90;;;24.30;1.00;;;;;;8354869;28;20217;-67
2023/07/07 08:55:58;;;;;;;3.63;1.80;;;24.50;1.00;;;;;;8354654;28;20306;-66
2023/07/07 09:00:05;;;;;;;2.10;1.80;;;24.60;1.00;;;;;;8366074;28;20300;-67
2023/07/07 09:04:22;;;;;;;3.80;1.90;;;24.60;1.00;;;;;;8351085;28;20205;-65
2023/07/07 09:08:35;;;;;;;4.87;2.20;;;24.70;1.00;;;;;;8352716;28;20239;-69
2023/07/07 09:13:08;;;;;;;2.17;1.70;;;24.70;1.00;;;;;;8366886;28;20243;-67
2023/07/07 09:17:19;;;;;;;3.57;2.27;;;24.60;1.00;;;;;;8346339;28;20251;-68
2023/07/07 09:21:33;;;;;;;5.53;1.97;;;24.90;1.00;;;;;;8345878;28;20218;-67
2023/07/07 09:25:43;;;;;;;2.40;1.70;;;25.00;1.00;;;;;;8342569;28;20190;-66
2023/07/07 09:29:51;;;;;;;3.87;2.00;;;25.00;1.00;;;;;;8353863;28;20204;-67
2023/07/07 09:33:53;;;;;;;2.53;1.77;;;25.00;99.90;;;;;;8363446;28;20228;-68
2023/07/07 09:38:12;;;;;;;5.53;1.87;;;24.80;99.90;;;;;;8346183;28;20185;-67
2023/07/07 09:42:39;;;;;;;3.20;1.80;;;25.00;99.90;;;;;;8362201;28;20270;-69
2023/07/07 09:47:05;;;;;;;3.83;1.97;;;25.20;99.90;;;;;;8347202;28;20193;-67
2023/07/07 09:51:25;;;;;;;2.67;1.60;;;25.10;99.90;;;;;;8353843;28;20280;-67
2023/07/07 09:55:36;;;;;;;2.20;1.70;;;24.90;99.90;;;;;;8360145;28;20196;-69
2023/07/07 09:59:41;;;;;;;2.27;1.43;;;24.50;99.90;;;;;;8366916;28;20213;-68
2023/07/07 10:03:48;;;;;;;3.53;1.90;;;24.20;99.90;;;;;;8343539;28;20205;-67
2023/07/07 10:07:50;;;;;;;5.37;1.70;;;24.30;99.90;;;;;;8346691;28;20189;-67
2023/07/07 10:11:51;;;;;;;1.73;1.50;;;24.30;99.90;;;;;;8365807;28;20185;-67
2023/07/07 10:16:05;;;;;;;3.27;1.50;;;24.30;99.90;;;;;;8347046;28;20177;-67
2023/07/07 10:20:11;;;;;;;2.80;1.70;;;24.10;99.90;;;;;;8363905;28;20308;-68
2023/07/07 10:24:16;;;;;;;1.90;1.47;;;24.30;99.90;;;;;;8352708;28;20180;-67
2023/07/07 10:28:19;;;;;;;2.40;1.37;;;24.60;99.90;;;;;;8362626;28;20300;-66
2023/07/07 10:32:24;;;;;;;4.90;1.60;;;24.50;99.90;;;;;;8361031;28;20212;-68
2023/07/07 10:36:33;;;;;;;3.27;1.70;;;24.60;99.90;;;;;;8346612;28;20277;-67
2023/07/07 10:40:35;;;;;;;2.47;1.70;;;24.80;99.90;;;;;;8344559;28;20206;-68
2023/07/07 10:44:36;;;;;;;2.07;1.63;;;25.10;99.90;;;;;;8349804;28;20284;-67
2023/07/07 10:48:43;;;;;;;3.43;1.57;;;25.60;99.90;;;;;;8362028;28;20200;-68
2023/07/07 10:53:13;;;;;;;2.90;1.43;;;26.10;99.90;;;;;;8347760;28;20189;-68
2023/07/07 10:57:36;;;;;;;1.50;1.20;;;26.60;99.90;;;;;;8362838;28;20200;-68
2023/07/07 11:02:00;;;;;;;2.67;1.73;;;27.00;99.90;;;;;;8345389;28;20217;-70
2023/07/07 11:06:24;;;;;;;4.00;1.60;;;27.20;99.90;;;;;;8352892;28;20201;-68
2023/07/07 11:10:37;;;;;;;1.85;1.67;;;27.40;99.90;;;;;;8352097;28;20231;-68
2023/07/07 11:15:00;;;;;;;2.50;1.80;;;27.40;99.90;;;;;;8368162;28;20190;-67
2023/07/07 11:19:09;;;;;;;2.63;1.50;;;27.50;99.90;;;;;;8355717;28;20210;-67
2023/07/07 11:23:35;;;;;;;3.70;1.55;;;27.70;99.90;;;;;;8353820;28;20184;-69
2023/07/07 11:28:07;;;;;;;2.33;1.80;;;27.70;99.90;;;;;;8369461;28;20185;-67
2023/07/07 11:32:30;;;;;;;3.05;1.75;;;27.30;99.90;;;;;;8369721;28;20242;-67
2023/07/07 11:36:54;;;;;;;2.92;1.77;;;27.20;99.90;;;;;;8353788;28;20216;-66
2023/07/07 11:41:36;;;;;;;3.38;1.45;;;27.30;99.90;;;;;;8358246;28;20220;-68
2023/07/07 11:46:02;;;;;;;3.40;1.80;;;27.20;99.90;;;;;;8355641;28;20181;-67
2023/07/07 11:50:18;;;;;;;3.08;1.10;;;26.90;99.90;;;;;;8367327;28;20185;-68
2023/07/07 11:54:49;;;;;;;1.88;1.52;;;27.00;99.90;;;;;;8369758;28;20196;-69
2023/07/07 11:59:08;;;;;;;2.67;1.80;;;27.20;99.90;;;;;;8365729;28;20193;-69
2023/07/07 12:03:28;;;;;;;3.05;1.75;;;27.40;99.90;;;;;;8353148;28;20197;-68
2023/07/07 12:07:41;;;;;;;3.55;1.50;;;27.20;99.90;;;;;;8363520;28;20216;-67
2023/07/07 12:12:21;;;;;;;2.95;2.08;;;26.80;99.90;;;;;;8366883;28;20185;-67
2023/07/07 12:16:23;;;;;;;3.67;1.77;;;26.10;99.90;;;;;;8346505;28;20206;-67
2023/07/07 12:20:33;;;;;;;1.93;1.40;;;26.00;99.90;;;;;;8362338;28;20219;-67
2023/07/07 12:25:02;;;;;;;4.33;1.97;;;26.30;99.90;;;;;;8351556;28;20185;-68
2023/07/07 12:29:05;;;;;;;2.47;1.58;;;26.70;99.90;;;;;;8363174;28;20195;-66
2023/07/07 12:33:08;;;;;;;2.08;1.42;;;26.90;99.90;;;;;;8351625;28;20257;-66
2023/07/07 12:37:14;;;;;;;2.58;1.52;;;26.90;99.90;;;;;;8365057;28;20178;-66
2023/07/07 12:41:21;;;;;;;1.65;1.20;;;26.80;99.90;;;;;;8352919;28;20205;-66
2023/07/07 12:45:31;;;;;;;6.68;1.80;;;27.10;99.90;;;;;;8361190;28;20198;-70
2023/07/07 12:49:39;;;;;;;2.13;1.50;;;27.30;99.90;;;;;;8367283;28;20192;-67
2023/07/07 12:53:49;;;;;;;4.57;2.03;;;27.60;99.90;;;;;;8366369;28;20189;-67
2023/07/07 12:58:31;;;;;;;2.08;1.73;;;27.60;99.90;;;;;;8350362;28;20191;-68
2023/07/07 13:02:32;;;;;;;4.82;1.65;;;27.60;99.90;;;;;;8338927;28;20279;-68
2023/07/07 13:06:38;;;;;;;3.78;1.33;;;27.80;99.90;;;;;;8356261;28;20181;-67
2023/07/07 13:10:42;;;;;;;1.80;1.23;;;28.10;99.90;;;;;;8346778;28;20189;-65
2023/07/07 13:14:43;;;;;;;2.08;1.40;;;28.20;99.90;;;;;;8354394;28;20257;-68
2023/07/07 13:18:44;;;;;;;2.72;1.40;;;28.10;99.90;;;;;;8352640;28;20192;-70
2023/07/07 13:23:03;;;;;;;1.88;1.40;;;28.00;99.90;;;;;;8351530;28;20213;-67
2023/07/07 13:27:05;;;;;;;4.40;1.85;;;27.60;99.90;;;;;;8347662;28;20276;-67
2023/07/07 13:31:15;;;;;;;2.30;1.40;;;27.50;99.90;;;;;;8354639;28;20188;-65
2023/07/07 13:35:16;;;;;;;1.67;1.50;;;27.60;99.90;;;;;;8350738;28;20192;-68
2023/07/07 13:39:18;;;;;;;3.53;1.70;;;27.80;99.90;;;;;;8348657;28;20198;-68
2023/07/07 13:43:33;;;;;;;2.13;1.50;;;27.90;99.90;;;;;;8350892;28;20187;-68
2023/07/07 13:47:44;;;;;;;3.13;1.65;;;27.90;99.90;;;;;;8347726;28;20199;-68
2023/07/07 13:51:52;;;;;;;2.90;1.38;;;28.00;99.90;;;;;;8365416;28;20186;-68
2023/07/07 13:55:57;;;;;;;1.80;1.45;;;27.90;99.90;;;;;;8353328;28;20182;-70
2023/07/07 14:00:00;;;;;;;2.17;1.73;;;27.90;99.90;;;;;;8354447;28;20214;-68
2023/07/07 14:04:10;;;;;;;2.80;1.60;;;27.90;99.90;;;;;;8351107;28;20316;-67
2023/07/07 14:08:17;;;;;;;1.67;1.45;;;28.10;99.90;;;;;;8342762;28;20189;-69
2023/07/07 14:12:25;;;;;;;2.13;1.48;;;28.30;99.90;;;;;;8354253;28;20189;-69
2023/07/07 14:16:35;;;;;;;2.25;1.27;;;28.30;99.90;;;;;;8350671;28;20194;-71
2023/07/07 14:20:47;;;;;;;2.67;1.50;;;28.30;99.90;;;;;;8346506;28;20209;-67
2023/07/07 14:24:51;;;;;;;2.85;1.65;;;28.40;99.90;;;;;;8363307;28;20185;-68
2023/07/07 14:28:56;;;;;;;1.48;1.33;;;28.40;99.90;;;;;;8367745;28;20186;-69
2023/07/07 14:33:00;;;;;;;2.70;1.45;;;28.40;99.90;;;;;;8354514;28;20182;-70
2023/07/07 14:37:03;;;;;;;2.67;1.80;;;28.40;99.90;;;;;;8348661;28;20181;-68
2023/07/07 14:41:16;;;;;;;2.00;1.40;;;28.40;99.90;;;;;;8366924;28;20206;-66
2023/07/07 14:45:30;;;;;;;3.28;1.63;;;28.50;99.90;;;;;;8353595;28;20272;-69
2023/07/07 14:49:32;;;;;;;1.95;1.50;;;28.50;99.90;;;;;;8371417;28;20183;-68
2023/07/07 14:53:36;;;;;;;1.88;1.58;;;28.60;99.90;;;;;;8359035;28;20274;-68
2023/07/07 14:57:45;;;;;;;2.20;1.48;;;28.50;99.90;;;;;;8354876;28;20190;-67
2023/07/07 15:02:17;;;;;;;3.33;1.67;;;28.60;99.90;;;;;;8369592;28;20300;-69
2023/07/07 15:06:33;;;;;;;2.83;1.63;;;28.60;99.90;;;;;;8359943;28;20220;-69
2023/07/07 15:10:38;;;;;;;2.72;1.85;;;28.70;99.90;;;;;;8367877;28;20182;-71
2023/07/07 15:14:39;;;;;;;3.10;1.30;;;28.60;99.90;;;;;;8354522;28;20185;-71
2023/07/07 15:18:40;;;;;;;2.22;1.52;;;28.60;99.90;;;;;;8352916;28;20212;-67
2023/07/07 15:22:41;;;;;;;2.65;1.83;;;28.60;99.90;;;;;;8351525;28;20217;-69
2023/07/07 15:26:43;;;;;;;2.15;1.50;;;28.60;99.90;;;;;;8368410;28;20186;-68
2023/07/07 15:30:44;;;;;;;2.10;1.30;;;28.40;99.90;;;;;;8369682;28;20190;-69
2023/07/07 15:34:45;;;;;;;3.22;1.63;;;28.30;99.90;;;;;;8353420;28;20193;-67
2023/07/07 15:38:55;;;;;;;2.38;1.60;;;28.20;99.90;;;;;;8350148;28;20182;-72
2023/07/07 15:42:56;;;;;;;2.92;1.92;;;28.10;99.90;;;;;;8360448;28;20245;-67
2023/07/07 15:47:03;;;;;;;1.90;1.50;;;28.20;99.90;;;;;;8356535;28;20173;-70
2023/07/07 15:51:04;;;;;;;2.10;1.70;;;28.30;99.90;;;;;;8358701;28;20189;-70
2023/07/07 15:55:06;;;;;;;1.83;1.10;;;28.30;99.90;;;;;;8356315;28;20178;-69
2023/07/07 15:59:22;;;;;;;4.15;1.58;;;28.30;99.90;;;;;;8366497;28;20238;-71
2023/07/07 16:03:23;;;;;;;2.03;1.55;;;28.30;99.90;;;;;;8368360;28;20202;-67
2023/07/07 16:07:27;;;;;;;1.83;1.52;;;28.30;99.90;;;;;;8352691;28;20192;-70
2023/07/07 16:11:28;;;;;;;2.45;1.58;;;28.20;99.90;;;;;;8359823;28;20243;-67
2023/07/07 16:15:29;;;;;;;2.38;1.50;;;28.10;99.90;;;;;;8354083;28;20199;-67
2023/07/07 16:19:30;;;;;;;2.08;1.52;;;28.10;99.90;;;;;;8351773;28;20201;-68
2023/07/07 16:23:31;;;;;;;1.95;1.52;;;28.20;99.90;;;;;;8350890;28;20216;-70
2023/07/07 16:27:32;;;;;;;2.30;1.40;;;28.20;99.90;;;;;;8358604;28;20184;-67
2023/07/07 16:31:33;;;;;;;2.97;1.58;;;28.20;99.90;;;;;;8347188;28;20190;-69
2023/07/07 16:35:36;;;;;;;7.63;1.75;;;28.20;99.90;;;;;;8369343;28;20218;-67
2023/07/07 16:39:37;;;;;;;3.33;1.92;;;28.20;99.90;;;;;;8355030;28;20202;-72
2023/07/07 16:43:38;;;;;;;2.20;1.67;;;28.10;99.90;;;;;;8364401;28;20368;-68
2023/07/07 16:47:39;;;;;;;1.90;1.50;;;28.20;99.90;;;;;;8350304;28;20189;-67
2023/07/07 16:51:41;;;;;;;3.92;1.70;;;28.10;99.90;;;;;;8364187;28;20208;-70
2023/07/07 16:55:42;;;;;;;2.53;1.73;;;28.10;99.90;;;;;;8349095;28;20193;-68
2023/07/07 16:59:46;;;;;;;4.22;1.67;;;28.00;99.90;;;;;;8352132;28;20258;-69
2023/07/07 17:03:46;;;;;;;3.33;1.52;;;27.90;99.90;;;;;;8349610;28;20196;-67
2023/07/07 17:07:48;;;;;;;4.18;1.60;;;27.90;99.90;;;;;;8358323;28;20182;-68
2023/07/07 17:11:49;;;;;;;4.50;2.50;;;27.90;99.90;;;;;;8365798;28;20186;-71
2023/07/07 17:15:49;;;;;;;2.25;1.52;;;27.80;99.90;;;;;;8364431;28;20259;-68
2023/07/07 17:19:50;;;;;;;2.70;1.83;;;27.80;99.90;;;;;;8371750;28;20286;-70
2023/07/07 17:23:51;;;;;;;3.45;1.50;;;28.30;99.90;;;;;;8345669;28;20173;-70
2023/07/07 17:27:56;;;;;;;1.67;1.48;;;29.40;99.90;;;;;;8346888;28;20297;-69
2023/07/07 17:31:57;;;;;;;4.03;1.60;;;30.40;99.90;;;;;;8351140;28;20185;-72
2023/07/07 17:36:09;;;;;;;2.63;1.50;;;31.40;99.90;;;;;;8349889;28;20185;-70
2023/07/07 17:40:17;;;;;;;1.75;1.50;;;31.90;99.90;;;;;;8349802;28;20201;-72
2023/07/07 17:44:17;;;;;;;2.58;1.40;;;32.50;99.90;;;;;;8356354;28;20184;-73
2023/07/07 17:48:18;;;;;;;2.70;1.40;;;32.90;99.90;;;;;;8364760;28;20181;-69
2023/07/07 17:52:19;;;;;;;1.85;1.60;;;33.50;99.90;;;;;;8353159;28;20188;-69
2023/07/07 17:56:29;;;;;;;2.20;2.00;;;34.00;99.90;;;;;;8361733;28;20186;-69
2023/07/07 18:00:33;;;;;;;1.90;1.60;;;34.40;99.90;;;;;;8349953;28;20267;-69
2023/07/07 18:04:33;;;;;;;2.42;2.00;;;34.50;99.90;;;;;;8361533;28;20209;-69
2023/07/07 18:08:34;;;;;;;4.30;2.10;;;34.60;99.90;;;;;;8366394;28;20185;-70
2023/07/07 18:12:35;;;;;;;2.38;1.83;;;34.40;99.90;;;;;;8347777;28;20198;-70
2023/07/07 18:16:41;;;;;;;3.55;2.17;;;34.40;99.90;;;;;;8347188;28;20186;-69
2023/07/07 18:20:43;;;;;;;2.22;1.98;;;34.30;99.90;;;;;;8349457;28;20247;-68
2023/07/07 18:24:44;;;;;;;2.40;1.52;;;34.10;99.90;;;;;;8347640;28;20180;-69
2023/07/07 18:28:46;;;;;;;2.78;1.95;;;33.90;99.90;;;;;;8365647;28;20219;-69
2023/07/07 18:32:47;;;;;;;1.58;1.40;;;33.50;99.90;;;;;;8354622;28;20438;-70
2023/07/07 18:36:49;;;;;;;3.20;1.42;;;33.20;99.90;;;;;;8362098;28;20193;-68
2023/07/07 18:40:50;;;;;;;2.38;1.85;;;32.60;99.90;;;;;;8362475;28;20205;-68
2023/07/07 18:44:51;;;;;;;1.65;1.55;;;31.70;99.90;;;;;;8352550;28;20212;-68
2023/07/07 18:48:52;;;;;;;1.88;1.50;;;30.90;99.90;;;;;;8364631;28;20219;-69
2023/07/07 18:52:54;;;;;;;10.48;3.20;;;30.00;99.90;;;;;;8362626;28;20259;-67
2023/07/07 18:56:57;;;;;;;2.97;2.08;;;29.10;99.90;;;;;;8351558;28;20209;-69
2023/07/07 19:00:58;;;;;;;2.88;1.75;;;27.90;99.90;;;;;;8346302;28;20213;-66
2023/07/07 19:04:59;;;;;;;2.10;1.65;;;26.80;99.90;;;;;;8347120;28;20240;-68
2023/07/07 19:09:02;;;;;;;2.57;1.97;;;25.70;99.90;;;;;;8350008;28;20177;-67
2023/07/07 19:13:18;;;;;;;2.20;1.80;;;24.80;99.90;;;;;;8347990;28;20185;-65
2023/07/07 19:17:19;;;;;;;1.80;1.70;;;23.90;99.90;;;;;;8367244;28;20181;-68
2023/07/07 19:21:22;;;;;;;4.13;2.77;;;23.20;99.90;;;;;;8343661;28;20285;-69
2023/07/07 19:25:23;;;;;;;2.60;2.40;;;22.60;99.90;;;;;;8362421;28;20178;-66
2023/07/07 19:29:24;;;;;;;2.60;2.40;;;22.10;1.00;;;;;;8373504;28;20185;-66
2023/07/07 19:33:25;;;;;;;2.97;2.27;;;21.60;1.00;;;;;;8349023;28;20191;-66
2023/07/07 19:37:29;;;;;;;2.20;1.93;;;21.30;1.00;;;;;;8367861;28;20176;-61
2023/07/07 19:41:34;;;;;;;2.70;2.07;;;21.00;1.00;;;;;;8357618;28;20209;-63
2023/07/07 19:45:35;;;;;;;2.50;2.10;;;20.70;1.00;;;;;;8358066;28;20178;-64
2023/07/07 19:49:36;;;;;;;4.33;2.60;;;20.40;1.00;;;;;;8367798;28;20271;-63
2023/07/07 19:53:37;;;;;;;4.20;2.20;;;20.20;1.00;;;;;;8367547;28;20193;-64
2023/07/07 19:57:38;;;;;;;3.00;2.33;;;19.90;1.00;;;;;;8370178;28;20213;-62
2023/07/07 20:01:39;;;;;;;3.63;2.87;;;19.60;1.00;;;;;;8359103;28;20221;-62
2023/07/07 20:05:40;;;;;;;3.53;2.80;;;19.40;1.00;;;;;;8365466;28;20201;-64
2023/07/07 20:09:44;;;;;;;3.27;2.97;;;19.20;1.00;;;;;;8368190;28;20200;-64
2023/07/07 20:13:48;;;;;;;4.93;3.30;;;19.00;1.00;;;;;;8365654;28;20192;-64
2023/07/07 20:17:48;;;;;;;4.67;4.00;;;18.90;1.00;;;;;;8355447;28;20246;-64
2023/07/07 20:21:51;;;;;;;3.97;3.47;;;18.60;1.00;;;;;;8346091;28;20210;-64
2023/07/07 20:25:51;;;;;;;3.63;3.30;;;18.30;1.00;;;;;;8366004;28;20182;-64
2023/07/07 20:29:52;;;;;;;3.63;3.33;;;18.10;1.00;;;;;;8350877;28;20209;-65
2023/07/07 20:33:54;;;;;;;7.03;4.67;;;17.90;1.00;;;;;;8366990;28;20271;-64
2023/07/07 20:37:55;;;;;;;8.03;4.60;;;17.80;1.00;;;;;;8348934;28;20217;-64
2023/07/07 20:41:56;;;;;;;7.73;6.00;;;17.70;1.00;;;;;;8366719;28;20201;-64
2023/07/07 20:45:58;;;;;;;6.40;5.60;;;17.50;1.00;;;;;;8350905;28;20185;-64
2023/07/07 20:49:59;;;;;;;6.07;5.00;;;17.40;1.00;;;;;;8363730;28;20181;-65
2023/07/07 20:54:00;;;;;;;6.30;4.57;;;17.20;1.00;;;;;;8351305;28;20262;-64
2023/07/07 20:58:01;;;;;;;5.30;4.50;;;17.00;1.00;;;;;;8347777;28;20193;-64
2023/07/07 21:02:11;;;;;;;7.03;4.90;;;16.80;1.00;;;;;;8351800;28;20240;-62
2023/07/07 21:06:20;;;;;;;8.77;4.57;;;16.60;1.00;;;;;;8346975;28;20200;-64
2023/07/07 21:10:25;;;;;;;5.23;4.60;;;16.50;1.00;;;;;;8350904;28;20268;-62
2023/07/07 21:14:26;;;;;;;7.07;4.53;;;16.40;1.00;;;;;;8354344;28;20234;-63
2023/07/07 21:18:27;;;;;;;5.33;4.80;;;16.30;1.00;;;;;;8365881;28;20185;-64
2023/07/07 21:22:28;;;;;;;8.37;4.97;;;16.20;1.00;;;;;;8354090;28;20208;-63